Terminal Aerodrome Forecast
Issued by NWS Billings, MT

Home | Current Version | Previous Version | Text Only | Print | Product List | Glossary On
Versions: 1 2 3 4 5 6 7 8 9 10 11 12 13 14 15 16 17 18 19 20 21 22 23 24
000
FTUS45 KBYZ 282059 AAA
TAFSHR
TAF AMD
KSHR 282059Z 2821/2918 25005KT P6SM VCSH SCT015 BKN025 OVC035
     FM290400 12005KT 5SM BR VCSH SCT005 BKN010 OVC025
     FM290900 VRB04KT 5SM BR SCT012 BKN030
     FM291400 VRB04KT P6SM SCT030 BKN050=

USA.gov is the U.S. government's official web portal to all federal, state and local government web resources and services.